sensor_id;sensor_type;location;lat;lon;timestamp;temperature;humidity
14727;DHT22;7454;51.256;8.176;2023-06-04T00:01:22;10.90;64.20
14727;DHT22;7454;51.256;8.176;2023-06-04T00:03:48;10.90;64.20
14727;DHT22;7454;51.256;8.176;2023-06-04T00:06:13;10.80;64.20
14727;DHT22;7454;51.256;8.176;2023-06-04T00:08:39;10.80;64.20
14727;DHT22;7454;51.256;8.176;2023-06-04T00:11:05;10.80;64.50
14727;DHT22;7454;51.256;8.176;2023-06-04T00:13:30;10.70;64.50
14727;DHT22;7454;51.256;8.176;2023-06-04T00:15:56;10.70;64.70
14727;DHT22;7454;51.256;8.176;2023-06-04T00:18:22;10.60;64.70
14727;DHT22;7454;51.256;8.176;2023-06-04T00:20:47;10.60;64.50
14727;DHT22;7454;51.256;8.176;2023-06-04T00:23:13;10.50;64.50
14727;DHT22;7454;51.256;8.176;2023-06-04T00:25:38;10.50;64.50
14727;DHT22;7454;51.256;8.176;2023-06-04T00:28:04;10.40;64.50
14727;DHT22;7454;51.256;8.176;2023-06-04T00:30:30;10.40;64.50
14727;DHT22;7454;51.256;8.176;2023-06-04T00:32:55;10.40;64.60
14727;DHT22;7454;51.256;8.176;2023-06-04T00:35:21;10.40;64.50
14727;DHT22;7454;51.256;8.176;2023-06-04T00:37:47;10.30;64.50
14727;DHT22;7454;51.256;8.176;2023-06-04T00:40:12;10.40;65.00
14727;DHT22;7454;51.256;8.176;2023-06-04T00:42:38;10.30;65.00
14727;DHT22;7454;51.256;8.176;2023-06-04T00:45:04;10.30;65.20
14727;DHT22;7454;51.256;8.176;2023-06-04T00:47:33;10.20;65.20
14727;DHT22;7454;51.256;8.176;2023-06-04T00:49:58;10.20;65.30
14727;DHT22;7454;51.256;8.176;2023-06-04T00:52:24;10.10;65.10
14727;DHT22;7454;51.256;8.176;2023-06-04T00:54:51;10.10;65.00
14727;DHT22;7454;51.256;8.176;2023-06-04T00:57:17;10.00;65.40
14727;DHT22;7454;51.256;8.176;2023-06-04T00:59:43;10.00;65.20
14727;DHT22;7454;51.256;8.176;2023-06-04T01:02:13;9.90;65.20
14727;DHT22;7454;51.256;8.176;2023-06-04T01:07:33;9.80;65.30
14727;DHT22;7454;51.256;8.176;2023-06-04T01:10:01;9.80;65.40
14727;DHT22;7454;51.256;8.176;2023-06-04T01:12:27;9.80;65.50
14727;DHT22;7454;51.256;8.176;2023-06-04T01:14:52;9.80;65.60
14727;DHT22;7454;51.256;8.176;2023-06-04T01:18:19;9.80;65.70
14727;DHT22;7454;51.256;8.176;2023-06-04T01:20:24;9.70;65.70
14727;DHT22;7454;51.256;8.176;2023-06-04T01:26:03;9.60;65.60
14727;DHT22;7454;51.256;8.176;2023-06-04T01:28:29;9.60;65.60
14727;DHT22;7454;51.256;8.176;2023-06-04T01:30:56;9.70;65.90
14727;DHT22;7454;51.256;8.176;2023-06-04T01:33:22;9.60;66.00
14727;DHT22;7454;51.256;8.176;2023-06-04T01:35:48;9.40;65.80
14727;DHT22;7454;51.256;8.176;2023-06-04T01:38:15;9.40;66.00
14727;DHT22;7454;51.256;8.176;2023-06-04T01:40:41;9.40;65.90
14727;DHT22;7454;51.256;8.176;2023-06-04T01:43:07;9.40;65.90
14727;DHT22;7454;51.256;8.176;2023-06-04T01:45:33;9.30;65.90
14727;DHT22;7454;51.256;8.176;2023-06-04T01:48:00;9.30;66.30
14727;DHT22;7454;51.256;8.176;2023-06-04T01:50:27;9.40;66.40
14727;DHT22;7454;51.256;8.176;2023-06-04T01:52:53;9.30;66.40
14727;DHT22;7454;51.256;8.176;2023-06-04T01:55:19;9.20;66.40
14727;DHT22;7454;51.256;8.176;2023-06-04T01:57:45;9.20;66.30
14727;DHT22;7454;51.256;8.176;2023-06-04T02:00:12;9.10;66.30
14727;DHT22;7454;51.256;8.176;2023-06-04T02:02:41;9.10;66.40
14727;DHT22;7454;51.256;8.176;2023-06-04T02:05:07;9.10;66.60
14727;DHT22;7454;51.256;8.176;2023-06-04T02:07:34;9.10;66.70
14727;DHT22;7454;51.256;8.176;2023-06-04T02:10:00;9.00;66.70
14727;DHT22;7454;51.256;8.176;2023-06-04T02:12:26;9.00;66.80
14727;DHT22;7454;51.256;8.176;2023-06-04T02:14:52;8.90;66.60
14727;DHT22;7454;51.256;8.176;2023-06-04T02:17:17;9.00;66.90
14727;DHT22;7454;51.256;8.176;2023-06-04T02:19:43;9.00;66.90
14727;DHT22;7454;51.256;8.176;2023-06-04T02:22:15;8.90;67.00
14727;DHT22;7454;51.256;8.176;2023-06-04T02:24:42;8.90;67.10
14727;DHT22;7454;51.256;8.176;2023-06-04T02:27:08;8.90;67.10
14727;DHT22;7454;51.256;8.176;2023-06-04T02:29:35;8.90;67.10
14727;DHT22;7454;51.256;8.176;2023-06-04T02:32:01;8.90;67.30
14727;DHT22;7454;51.256;8.176;2023-06-04T02:34:27;8.90;67.40
14727;DHT22;7454;51.256;8.176;2023-06-04T02:36:53;8.80;67.40
14727;DHT22;7454;51.256;8.176;2023-06-04T02:39:19;8.80;67.40
14727;DHT22;7454;51.256;8.176;2023-06-04T02:41:45;8.70;67.20
14727;DHT22;7454;51.256;8.176;2023-06-04T02:44:11;8.70;67.40
14727;DHT22;7454;51.256;8.176;2023-06-04T02:46:37;8.60;67.30
14727;DHT22;7454;51.256;8.176;2023-06-04T02:49:03;8.50;67.50
14727;DHT22;7454;51.256;8.176;2023-06-04T02:51:29;8.50;67.60
14727;DHT22;7454;51.256;8.176;2023-06-04T02:53:54;8.50;67.50
14727;DHT22;7454;51.256;8.176;2023-06-04T02:56:20;8.50;67.60
14727;DHT22;7454;51.256;8.176;2023-06-04T02:58:50;8.50;67.50
14727;DHT22;7454;51.256;8.176;2023-06-04T03:01:20;8.50;67.50
14727;DHT22;7454;51.256;8.176;2023-06-04T03:03:49;8.50;67.50
14727;DHT22;7454;51.256;8.176;2023-06-04T03:06:15;8.40;67.50
14727;DHT22;7454;51.256;8.176;2023-06-04T03:08:42;8.40;67.60
14727;DHT22;7454;51.256;8.176;2023-06-04T03:11:08;8.40;67.70
14727;DHT22;7454;51.256;8.176;2023-06-04T03:13:34;8.40;67.70
14727;DHT22;7454;51.256;8.176;2023-06-04T03:16:00;8.30;67.80
14727;DHT22;7454;51.256;8.176;2023-06-04T03:18:29;8.40;67.90
14727;DHT22;7454;51.256;8.176;2023-06-04T03:20:55;8.40;68.00
14727;DHT22;7454;51.256;8.176;2023-06-04T03:23:21;8.30;67.90
14727;DHT22;7454;51.256;8.176;2023-06-04T03:25:47;8.20;67.90
14727;DHT22;7454;51.256;8.176;2023-06-04T03:28:13;8.20;67.90
14727;DHT22;7454;51.256;8.176;2023-06-04T03:30:42;8.20;68.00
14727;DHT22;7454;51.256;8.176;2023-06-04T03:33:08;8.20;68.00
14727;DHT22;7454;51.256;8.176;2023-06-04T03:35:34;8.10;68.10
14727;DHT22;7454;51.256;8.176;2023-06-04T03:37:59;8.10;68.30
14727;DHT22;7454;51.256;8.176;2023-06-04T03:40:25;8.10;68.30
14727;DHT22;7454;51.256;8.176;2023-06-04T03:42:51;8.20;68.30
14727;DHT22;7454;51.256;8.176;2023-06-04T03:45:19;8.20;68.20
14727;DHT22;7454;51.256;8.176;2023-06-04T03:47:45;8.20;68.40
14727;DHT22;7454;51.256;8.176;2023-06-04T03:50:11;8.10;68.40
14727;DHT22;7454;51.256;8.176;2023-06-04T03:52:37;8.20;68.40
14727;DHT22;7454;51.256;8.176;2023-06-04T03:55:03;8.20;68.40
14727;DHT22;7454;51.256;8.176;2023-06-04T03:57:29;8.20;68.40
14727;DHT22;7454;51.256;8.176;2023-06-04T03:59:56;8.20;68.50
14727;DHT22;7454;51.256;8.176;2023-06-04T04:02:22;8.20;68.50
14727;DHT22;7454;51.256;8.176;2023-06-04T04:04:48;8.20;68.70
14727;DHT22;7454;51.256;8.176;2023-06-04T04:07:15;8.10;68.60
14727;DHT22;7454;51.256;8.176;2023-06-04T04:09:41;8.20;68.60
14727;DHT22;7454;51.256;8.176;2023-06-04T04:12:06;8.20;68.80
14727;DHT22;7454;51.256;8.176;2023-06-04T04:14:33;8.20;68.80
14727;DHT22;7454;51.256;8.176;2023-06-04T04:17:00;8.10;68.70
14727;DHT22;7454;51.256;8.176;2023-06-04T04:19:26;8.20;68.80
14727;DHT22;7454;51.256;8.176;2023-06-04T04:21:54;8.20;68.90
14727;DHT22;7454;51.256;8.176;2023-06-04T04:24:26;8.20;68.80
14727;DHT22;7454;51.256;8.176;2023-06-04T04:26:54;8.20;69.00
14727;DHT22;7454;51.256;8.176;2023-06-04T04:29:23;8.20;68.90
14727;DHT22;7454;51.256;8.176;2023-06-04T04:31:54;8.20;69.00
14727;DHT22;7454;51.256;8.176;2023-06-04T04:34:25;8.10;69.00
14727;DHT22;7454;51.256;8.176;2023-06-04T04:36:52;8.20;69.20
14727;DHT22;7454;51.256;8.176;2023-06-04T04:39:19;8.20;69.00
14727;DHT22;7454;51.256;8.176;2023-06-04T04:41:47;8.20;69.10
14727;DHT22;7454;51.256;8.176;2023-06-04T04:44:13;8.30;69.10
14727;DHT22;7454;51.256;8.176;2023-06-04T04:46:39;8.30;69.00
14727;DHT22;7454;51.256;8.176;2023-06-04T04:49:04;8.40;69.10
14727;DHT22;7454;51.256;8.176;2023-06-04T04:51:30;8.40;69.20
14727;DHT22;7454;51.256;8.176;2023-06-04T04:53:57;8.40;69.20
14727;DHT22;7454;51.256;8.176;2023-06-04T04:56:26;8.40;69.20
14727;DHT22;7454;51.256;8.176;2023-06-04T04:58:52;8.50;69.20
14727;DHT22;7454;51.256;8.176;2023-06-04T05:01:19;8.50;69.30
14727;DHT22;7454;51.256;8.176;2023-06-04T05:03:45;8.50;69.30
14727;DHT22;7454;51.256;8.176;2023-06-04T05:06:13;8.60;69.40
14727;DHT22;7454;51.256;8.176;2023-06-04T05:08:39;8.60;69.40
14727;DHT22;7454;51.256;8.176;2023-06-04T05:11:06;8.70;69.50
14727;DHT22;7454;51.256;8.176;2023-06-04T05:13:32;8.80;69.50
14727;DHT22;7454;51.256;8.176;2023-06-04T05:16:01;8.80;69.50
14727;DHT22;7454;51.256;8.176;2023-06-04T05:18:34;8.90;69.50
14727;DHT22;7454;51.256;8.176;2023-06-04T05:21:02;8.90;69.40
14727;DHT22;7454;51.256;8.176;2023-06-04T05:23:30;8.90;69.40
14727;DHT22;7454;51.256;8.176;2023-06-04T05:25:57;9.00;69.40
14727;DHT22;7454;51.256;8.176;2023-06-04T05:28:25;9.10;69.40
14727;DHT22;7454;51.256;8.176;2023-06-04T05:30:51;9.20;69.50
14727;DHT22;7454;51.256;8.176;2023-06-04T05:33:17;9.20;69.50
14727;DHT22;7454;51.256;8.176;2023-06-04T05:35:47;9.30;69.70
14727;DHT22;7454;51.256;8.176;2023-06-04T05:38:28;9.30;69.70
14727;DHT22;7454;51.256;8.176;2023-06-04T05:40:57;9.30;69.70
14727;DHT22;7454;51.256;8.176;2023-06-04T05:43:26;9.40;69.70
14727;DHT22;7454;51.256;8.176;2023-06-04T05:45:52;9.40;69.80
14727;DHT22;7454;51.256;8.176;2023-06-04T05:48:18;9.60;70.00
14727;DHT22;7454;51.256;8.176;2023-06-04T05:50:44;9.60;70.10
14727;DHT22;7454;51.256;8.176;2023-06-04T05:53:10;9.70;70.20
14727;DHT22;7454;51.256;8.176;2023-06-04T05:55:36;9.70;70.20
14727;DHT22;7454;51.256;8.176;2023-06-04T05:58:02;9.80;70.10
14727;DHT22;7454;51.256;8.176;2023-06-04T06:00:28;9.90;70.00
14727;DHT22;7454;51.256;8.176;2023-06-04T06:02:54;10.00;70.20
14727;DHT22;7454;51.256;8.176;2023-06-04T06:05:37;10.00;70.20
14727;DHT22;7454;51.256;8.176;2023-06-04T06:08:03;10.00;70.20
14727;DHT22;7454;51.256;8.176;2023-06-04T06:10:29;10.20;70.20
14727;DHT22;7454;51.256;8.176;2023-06-04T06:12:55;10.30;70.20
14727;DHT22;7454;51.256;8.176;2023-06-04T06:15:20;10.40;69.90
14727;DHT22;7454;51.256;8.176;2023-06-04T06:17:48;10.50;70.00
14727;DHT22;7454;51.256;8.176;2023-06-04T06:20:13;10.60;70.00
14727;DHT22;7454;51.256;8.176;2023-06-04T06:22:43;10.70;70.00
14727;DHT22;7454;51.256;8.176;2023-06-04T06:25:09;10.80;70.10
14727;DHT22;7454;51.256;8.176;2023-06-04T06:27:41;10.90;70.00
14727;DHT22;7454;51.256;8.176;2023-06-04T06:30:08;11.00;70.10
14727;DHT22;7454;51.256;8.176;2023-06-04T06:32:34;11.10;70.10
14727;DHT22;7454;51.256;8.176;2023-06-04T06:35:00;11.20;70.10
14727;DHT22;7454;51.256;8.176;2023-06-04T06:37:26;11.40;70.20
14727;DHT22;7454;51.256;8.176;2023-06-04T06:39:52;11.50;70.30
14727;DHT22;7454;51.256;8.176;2023-06-04T06:42:17;11.60;70.40
14727;DHT22;7454;51.256;8.176;2023-06-04T06:44:46;11.70;70.40
14727;DHT22;7454;51.256;8.176;2023-06-04T06:47:11;11.80;70.70
14727;DHT22;7454;51.256;8.176;2023-06-04T06:49:40;12.00;70.80
14727;DHT22;7454;51.256;8.176;2023-06-04T06:52:06;12.20;70.60
14727;DHT22;7454;51.256;8.176;2023-06-04T06:54:31;12.40;70.70
14727;DHT22;7454;51.256;8.176;2023-06-04T06:56:57;12.50;70.70
14727;DHT22;7454;51.256;8.176;2023-06-04T06:59:23;12.70;70.50
14727;DHT22;7454;51.256;8.176;2023-06-04T07:01:49;12.80;70.30
14727;DHT22;7454;51.256;8.176;2023-06-04T07:04:15;13.00;70.30
14727;DHT22;7454;51.256;8.176;2023-06-04T07:06:41;13.20;70.40
14727;DHT22;7454;51.256;8.176;2023-06-04T07:09:07;13.30;70.00
14727;DHT22;7454;51.256;8.176;2023-06-04T07:11:33;13.50;69.90
14727;DHT22;7454;51.256;8.176;2023-06-04T07:13:59;13.70;69.80
14727;DHT22;7454;51.256;8.176;2023-06-04T07:16:27;13.70;69.40
14727;DHT22;7454;51.256;8.176;2023-06-04T07:18:53;14.00;69.30
14727;DHT22;7454;51.256;8.176;2023-06-04T07:21:19;14.10;69.90
14727;DHT22;7454;51.256;8.176;2023-06-04T07:23:47;14.30;69.60
14727;DHT22;7454;51.256;8.176;2023-06-04T07:26:15;14.50;69.80
14727;DHT22;7454;51.256;8.176;2023-06-04T07:28:41;14.60;69.10
14727;DHT22;7454;51.256;8.176;2023-06-04T07:31:07;14.70;68.90
14727;DHT22;7454;51.256;8.176;2023-06-04T07:33:33;14.90;69.80
14727;DHT22;7454;51.256;8.176;2023-06-04T07:35:58;15.00;68.50
14727;DHT22;7454;51.256;8.176;2023-06-04T07:38:24;15.10;68.10
14727;DHT22;7454;51.256;8.176;2023-06-04T07:40:50;15.40;67.60
14727;DHT22;7454;51.256;8.176;2023-06-04T07:43:16;15.50;68.00
14727;DHT22;7454;51.256;8.176;2023-06-04T07:45:42;15.70;67.30
14727;DHT22;7454;51.256;8.176;2023-06-04T07:48:10;15.80;67.20
14727;DHT22;7454;51.256;8.176;2023-06-04T07:50:37;15.90;67.30
14727;DHT22;7454;51.256;8.176;2023-06-04T07:53:02;16.00;67.10
14727;DHT22;7454;51.256;8.176;2023-06-04T07:55:28;16.30;66.90
14727;DHT22;7454;51.256;8.176;2023-06-04T07:57:54;16.30;66.70
14727;DHT22;7454;51.256;8.176;2023-06-04T08:00:19;16.40;65.90
14727;DHT22;7454;51.256;8.176;2023-06-04T08:02:45;16.40;66.20
14727;DHT22;7454;51.256;8.176;2023-06-04T08:05:11;16.60;65.70
14727;DHT22;7454;51.256;8.176;2023-06-04T08:07:39;16.70;65.40
14727;DHT22;7454;51.256;8.176;2023-06-04T08:10:06;16.80;65.40
14727;DHT22;7454;51.256;8.176;2023-06-04T08:12:32;16.90;64.00
14727;DHT22;7454;51.256;8.176;2023-06-04T08:14:57;17.00;63.70
14727;DHT22;7454;51.256;8.176;2023-06-04T08:17:23;17.20;63.70
14727;DHT22;7454;51.256;8.176;2023-06-04T08:19:49;17.20;63.60
14727;DHT22;7454;51.256;8.176;2023-06-04T08:22:15;17.20;63.70
14727;DHT22;7454;51.256;8.176;2023-06-04T08:24:41;17.60;63.70
14727;DHT22;7454;51.256;8.176;2023-06-04T08:27:06;17.50;63.00
14727;DHT22;7454;51.256;8.176;2023-06-04T08:29:34;17.50;63.00
14727;DHT22;7454;51.256;8.176;2023-06-04T08:32:01;17.60;62.60
14727;DHT22;7454;51.256;8.176;2023-06-04T08:34:27;17.60;62.70
14727;DHT22;7454;51.256;8.176;2023-06-04T08:36:53;17.60;62.90
14727;DHT22;7454;51.256;8.176;2023-06-04T08:39:19;17.90;62.80
14727;DHT22;7454;51.256;8.176;2023-06-04T08:41:46;17.70;63.00
14727;DHT22;7454;51.256;8.176;2023-06-04T08:44:15;17.90;62.60
14727;DHT22;7454;51.256;8.176;2023-06-04T08:46:41;17.90;62.50
14727;DHT22;7454;51.256;8.176;2023-06-04T08:49:09;17.90;62.60
14727;DHT22;7454;51.256;8.176;2023-06-04T08:51:37;17.90;62.60
14727;DHT22;7454;51.256;8.176;2023-06-04T08:54:04;17.90;62.50
14727;DHT22;7454;51.256;8.176;2023-06-04T08:56:31;18.00;62.40
14727;DHT22;7454;51.256;8.176;2023-06-04T08:59:02;17.90;61.80
14727;DHT22;7454;51.256;8.176;2023-06-04T09:01:31;18.00;62.30
14727;DHT22;7454;51.256;8.176;2023-06-04T09:04:03;18.00;62.10
14727;DHT22;7454;51.256;8.176;2023-06-04T09:06:29;18.00;62.00
14727;DHT22;7454;51.256;8.176;2023-06-04T09:08:56;18.00;62.20
14727;DHT22;7454;51.256;8.176;2023-06-04T09:11:23;18.00;61.50
14727;DHT22;7454;51.256;8.176;2023-06-04T09:14:11;18.00;61.20
14727;DHT22;7454;51.256;8.176;2023-06-04T09:16:42;18.10;61.30
14727;DHT22;7454;51.256;8.176;2023-06-04T09:19:08;18.10;61.40
14727;DHT22;7454;51.256;8.176;2023-06-04T09:21:34;18.10;60.90
14727;DHT22;7454;51.256;8.176;2023-06-04T09:23:59;18.10;60.70
14727;DHT22;7454;51.256;8.176;2023-06-04T09:26:25;18.20;61.10
14727;DHT22;7454;51.256;8.176;2023-06-04T09:28:51;18.20;60.80
14727;DHT22;7454;51.256;8.176;2023-06-04T09:31:20;18.10;60.60
14727;DHT22;7454;51.256;8.176;2023-06-04T09:33:50;18.10;60.30
14727;DHT22;7454;51.256;8.176;2023-06-04T09:36:16;18.20;60.70
14727;DHT22;7454;51.256;8.176;2023-06-04T09:38:42;18.30;60.40
14727;DHT22;7454;51.256;8.176;2023-06-04T09:41:13;18.20;60.20
14727;DHT22;7454;51.256;8.176;2023-06-04T09:43:39;18.30;60.10
14727;DHT22;7454;51.256;8.176;2023-06-04T09:46:09;18.20;60.10
14727;DHT22;7454;51.256;8.176;2023-06-04T09:48:36;18.20;59.50
14727;DHT22;7454;51.256;8.176;2023-06-04T09:51:13;18.20;60.10
14727;DHT22;7454;51.256;8.176;2023-06-04T09:54:01;18.30;60.50
14727;DHT22;7454;51.256;8.176;2023-06-04T09:56:28;18.40;60.80
14727;DHT22;7454;51.256;8.176;2023-06-04T09:58:54;18.40;60.20
14727;DHT22;7454;51.256;8.176;2023-06-04T10:01:23;18.40;60.20
14727;DHT22;7454;51.256;8.176;2023-06-04T10:03:51;18.40;60.00
14727;DHT22;7454;51.256;8.176;2023-06-04T10:06:18;18.40;60.00
14727;DHT22;7454;51.256;8.176;2023-06-04T10:08:46;18.40;60.10
14727;DHT22;7454;51.256;8.176;2023-06-04T10:11:14;18.40;60.10
14727;DHT22;7454;51.256;8.176;2023-06-04T10:14:27;18.40;59.50
14727;DHT22;7454;51.256;8.176;2023-06-04T10:16:36;18.50;60.10
14727;DHT22;7454;51.256;8.176;2023-06-04T10:19:06;18.40;60.00
14727;DHT22;7454;51.256;8.176;2023-06-04T10:21:32;18.40;59.10
14727;DHT22;7454;51.256;8.176;2023-06-04T10:24:00;18.40;57.40
14727;DHT22;7454;51.256;8.176;2023-06-04T10:26:26;18.30;58.90
14727;DHT22;7454;51.256;8.176;2023-06-04T10:28:52;18.20;58.00
14727;DHT22;7454;51.256;8.176;2023-06-04T10:31:18;18.20;57.60
14727;DHT22;7454;51.256;8.176;2023-06-04T10:33:43;18.20;57.70
14727;DHT22;7454;51.256;8.176;2023-06-04T10:36:16;18.20;59.10
14727;DHT22;7454;51.256;8.176;2023-06-04T10:38:46;18.20;58.10
14727;DHT22;7454;51.256;8.176;2023-06-04T10:41:16;18.10;57.60
14727;DHT22;7454;51.256;8.176;2023-06-04T10:43:47;18.10;57.30
14727;DHT22;7454;51.256;8.176;2023-06-04T10:46:17;18.10;57.80
14727;DHT22;7454;51.256;8.176;2023-06-04T10:51:16;18.10;58.70
14727;DHT22;7454;51.256;8.176;2023-06-04T10:53:42;18.00;57.50
14727;DHT22;7454;51.256;8.176;2023-06-04T10:56:08;18.10;59.80
14727;DHT22;7454;51.256;8.176;2023-06-04T10:58:34;18.10;60.10
14727;DHT22;7454;51.256;8.176;2023-06-04T11:01:00;18.20;60.00
14727;DHT22;7454;51.256;8.176;2023-06-04T11:03:37;18.20;60.20
14727;DHT22;7454;51.256;8.176;2023-06-04T11:06:14;18.20;60.20
14727;DHT22;7454;51.256;8.176;2023-06-04T11:08:41;18.30;60.30
14727;DHT22;7454;51.256;8.176;2023-06-04T11:11:15;18.30;60.00
14727;DHT22;7454;51.256;8.176;2023-06-04T11:13:42;18.30;60.20
14727;DHT22;7454;51.256;8.176;2023-06-04T11:16:17;18.50;60.30
14727;DHT22;7454;51.256;8.176;2023-06-04T11:18:53;18.50;60.20
14727;DHT22;7454;51.256;8.176;2023-06-04T11:21:20;18.50;60.20
14727;DHT22;7454;51.256;8.176;2023-06-04T11:23:46;18.60;60.20
14727;DHT22;7454;51.256;8.176;2023-06-04T11:26:12;18.60;60.50
14727;DHT22;7454;51.256;8.176;2023-06-04T11:28:38;18.50;60.40
14727;DHT22;7454;51.256;8.176;2023-06-04T11:31:05;18.50;60.20
14727;DHT22;7454;51.256;8.176;2023-06-04T11:33:52;18.40;60.40
14727;DHT22;7454;51.256;8.176;2023-06-04T11:36:27;18.50;60.60
14727;DHT22;7454;51.256;8.176;2023-06-04T11:38:54;18.50;60.10
14727;DHT22;7454;51.256;8.176;2023-06-04T11:41:27;18.50;60.10
14727;DHT22;7454;51.256;8.176;2023-06-04T11:43:55;18.50;60.10
14727;DHT22;7454;51.256;8.176;2023-06-04T11:46:21;18.40;60.10
14727;DHT22;7454;51.256;8.176;2023-06-04T11:48:47;18.50;59.40
14727;DHT22;7454;51.256;8.176;2023-06-04T11:51:13;18.50;59.10
14727;DHT22;7454;51.256;8.176;2023-06-04T11:53:39;18.50;60.20
14727;DHT22;7454;51.256;8.176;2023-06-04T11:56:05;18.60;60.40
14727;DHT22;7454;51.256;8.176;2023-06-04T11:58:31;18.70;60.30
14727;DHT22;7454;51.256;8.176;2023-06-04T12:00:57;18.80;60.50
14727;DHT22;7454;51.256;8.176;2023-06-04T12:03:36;18.80;60.20
14727;DHT22;7454;51.256;8.176;2023-06-04T12:06:15;18.80;60.30
14727;DHT22;7454;51.256;8.176;2023-06-04T12:08:45;18.90;60.40
14727;DHT22;7454;51.256;8.176;2023-06-04T12:11:31;18.90;60.10
14727;DHT22;7454;51.256;8.176;2023-06-04T12:13:58;18.90;60.00
14727;DHT22;7454;51.256;8.176;2023-06-04T12:16:33;18.80;60.20
14727;DHT22;7454;51.256;8.176;2023-06-04T12:19:06;18.80;60.30
14727;DHT22;7454;51.256;8.176;2023-06-04T12:21:36;18.90;60.10
14727;DHT22;7454;51.256;8.176;2023-06-04T12:24:08;19.00;59.10
14727;DHT22;7454;51.256;8.176;2023-06-04T12:26:35;18.90;60.10
14727;DHT22;7454;51.256;8.176;2023-06-04T12:29:10;19.00;59.90
14727;DHT22;7454;51.256;8.176;2023-06-04T12:31:40;18.90;60.00
14727;DHT22;7454;51.256;8.176;2023-06-04T12:34:06;18.90;59.20
14727;DHT22;7454;51.256;8.176;2023-06-04T12:36:32;19.00;60.00
14727;DHT22;7454;51.256;8.176;2023-06-04T12:39:04;19.10;60.10
14727;DHT22;7454;51.256;8.176;2023-06-04T12:41:30;19.10;60.00
14727;DHT22;7454;51.256;8.176;2023-06-04T12:43:57;19.20;60.10
14727;DHT22;7454;51.256;8.176;2023-06-04T12:46:23;19.20;60.20
14727;DHT22;7454;51.256;8.176;2023-06-04T12:48:52;19.20;59.90
14727;DHT22;7454;51.256;8.176;2023-06-04T12:51:19;19.20;60.10
14727;DHT22;7454;51.256;8.176;2023-06-04T12:53:46;19.20;60.00
14727;DHT22;7454;51.256;8.176;2023-06-04T12:56:12;19.20;60.40
14727;DHT22;7454;51.256;8.176;2023-06-04T12:58:38;19.20;60.60
14727;DHT22;7454;51.256;8.176;2023-06-04T13:01:04;19.30;60.50
14727;DHT22;7454;51.256;8.176;2023-06-04T13:03:30;19.30;60.40
14727;DHT22;7454;51.256;8.176;2023-06-04T13:05:56;19.30;60.00
14727;DHT22;7454;51.256;8.176;2023-06-04T13:08:22;19.30;60.30
14727;DHT22;7454;51.256;8.176;2023-06-04T13:10:49;19.40;60.20
14727;DHT22;7454;51.256;8.176;2023-06-04T13:13:16;19.40;60.40
14727;DHT22;7454;51.256;8.176;2023-06-04T13:15:42;19.30;60.00
14727;DHT22;7454;51.256;8.176;2023-06-04T13:18:08;19.40;60.00
14727;DHT22;7454;51.256;8.176;2023-06-04T13:20:35;19.50;60.30
14727;DHT22;7454;51.256;8.176;2023-06-04T13:23:01;19.40;60.20
14727;DHT22;7454;51.256;8.176;2023-06-04T13:25:26;19.50;60.20
14727;DHT22;7454;51.256;8.176;2023-06-04T13:27:54;19.40;60.40
14727;DHT22;7454;51.256;8.176;2023-06-04T13:30:20;19.50;60.10
14727;DHT22;7454;51.256;8.176;2023-06-04T13:32:46;19.60;60.20
14727;DHT22;7454;51.256;8.176;2023-06-04T13:35:12;19.60;60.40
14727;DHT22;7454;51.256;8.176;2023-06-04T13:37:37;19.60;60.20
14727;DHT22;7454;51.256;8.176;2023-06-04T13:40:03;19.60;60.40
14727;DHT22;7454;51.256;8.176;2023-06-04T13:42:30;19.60;60.50
14727;DHT22;7454;51.256;8.176;2023-06-04T13:44:55;19.60;60.20
14727;DHT22;7454;51.256;8.176;2023-06-04T13:47:21;19.70;60.20
14727;DHT22;7454;51.256;8.176;2023-06-04T13:49:47;19.80;60.20
14727;DHT22;7454;51.256;8.176;2023-06-04T13:52:12;19.50;60.00
14727;DHT22;7454;51.256;8.176;2023-06-04T13:54:38;19.70;60.40
14727;DHT22;7454;51.256;8.176;2023-06-04T13:57:04;19.70;60.30
14727;DHT22;7454;51.256;8.176;2023-06-04T13:59:32;19.70;60.40
14727;DHT22;7454;51.256;8.176;2023-06-04T14:01:58;19.70;60.40
14727;DHT22;7454;51.256;8.176;2023-06-04T14:04:23;19.90;60.00
14727;DHT22;7454;51.256;8.176;2023-06-04T14:06:49;19.80;60.20
14727;DHT22;7454;51.256;8.176;2023-06-04T14:09:15;19.80;60.40
14727;DHT22;7454;51.256;8.176;2023-06-04T14:11:40;19.80;60.00
14727;DHT22;7454;51.256;8.176;2023-06-04T14:14:06;19.90;60.20
14727;DHT22;7454;51.256;8.176;2023-06-04T14:16:32;19.90;60.30
14727;DHT22;7454;51.256;8.176;2023-06-04T14:18:59;19.90;59.70
14727;DHT22;7454;51.256;8.176;2023-06-04T14:21:26;19.90;59.90
14727;DHT22;7454;51.256;8.176;2023-06-04T14:23:53;19.90;59.80
14727;DHT22;7454;51.256;8.176;2023-06-04T14:26:18;19.90;60.10
14727;DHT22;7454;51.256;8.176;2023-06-04T14:28:44;19.90;59.70
14727;DHT22;7454;51.256;8.176;2023-06-04T14:31:10;20.00;58.90
14727;DHT22;7454;51.256;8.176;2023-06-04T14:33:35;19.90;59.90
14727;DHT22;7454;51.256;8.176;2023-06-04T14:36:03;19.90;60.10
14727;DHT22;7454;51.256;8.176;2023-06-04T14:38:29;20.00;60.00
14727;DHT22;7454;51.256;8.176;2023-06-04T14:40:55;20.10;60.00
14727;DHT22;7454;51.256;8.176;2023-06-04T14:43:22;20.10;60.00
14727;DHT22;7454;51.256;8.176;2023-06-04T14:45:48;20.00;59.20
14727;DHT22;7454;51.256;8.176;2023-06-04T14:48:13;20.10;59.90
14727;DHT22;7454;51.256;8.176;2023-06-04T14:50:39;20.00;60.00
14727;DHT22;7454;51.256;8.176;2023-06-04T14:53:05;20.10;59.50
14727;DHT22;7454;51.256;8.176;2023-06-04T14:55:33;20.10;60.00
14727;DHT22;7454;51.256;8.176;2023-06-04T14:57:59;20.10;59.00
14727;DHT22;7454;51.256;8.176;2023-06-04T15:00:25;20.10;59.10
14727;DHT22;7454;51.256;8.176;2023-06-04T15:02:51;20.10;56.80
14727;DHT22;7454;51.256;8.176;2023-06-04T15:05:16;20.10;58.70
14727;DHT22;7454;51.256;8.176;2023-06-04T15:07:42;20.10;59.40
14727;DHT22;7454;51.256;8.176;2023-06-04T15:10:08;20.10;59.60
14727;DHT22;7454;51.256;8.176;2023-06-04T15:12:34;20.10;58.70
14727;DHT22;7454;51.256;8.176;2023-06-04T15:15:06;20.10;59.00
14727;DHT22;7454;51.256;8.176;2023-06-04T15:17:32;20.10;59.00
14727;DHT22;7454;51.256;8.176;2023-06-04T15:19:57;20.10;59.10
14727;DHT22;7454;51.256;8.176;2023-06-04T15:22:23;20.10;59.90
14727;DHT22;7454;51.256;8.176;2023-06-04T15:24:50;20.20;59.40
14727;DHT22;7454;51.256;8.176;2023-06-04T15:27:15;20.20;60.10
14727;DHT22;7454;51.256;8.176;2023-06-04T15:29:42;20.10;60.00
14727;DHT22;7454;51.256;8.176;2023-06-04T15:32:08;20.20;60.20
14727;DHT22;7454;51.256;8.176;2023-06-04T15:34:34;20.20;60.20
14727;DHT22;7454;51.256;8.176;2023-06-04T15:36:59;20.20;60.00
14727;DHT22;7454;51.256;8.176;2023-06-04T15:39:25;20.20;58.70
14727;DHT22;7454;51.256;8.176;2023-06-04T15:41:51;20.20;58.60
14727;DHT22;7454;51.256;8.176;2023-06-04T15:44:16;20.10;59.50
14727;DHT22;7454;51.256;8.176;2023-06-04T15:46:42;20.20;59.10
14727;DHT22;7454;51.256;8.176;2023-06-04T15:49:09;20.20;60.00
14727;DHT22;7454;51.256;8.176;2023-06-04T15:51:37;20.20;59.30
14727;DHT22;7454;51.256;8.176;2023-06-04T15:54:03;20.20;59.20
14727;DHT22;7454;51.256;8.176;2023-06-04T15:56:30;20.20;59.20
14727;DHT22;7454;51.256;8.176;2023-06-04T15:58:56;20.10;57.10